Time;durP1;ratioP1;P1;durP2;ratioP2;P2;SDS_P1;SDS_P2;PMS_P1;PMS_P2;Temp;Humidity;BMP_temperature;BMP_pressure;BME280_temperature;BME280_humidity;BME280_pressure;Samples;Min_cycle;Max_cycle;Signal;HPM_P1;HPM_P2
2023/10/04 00:00:20;;;;;;;23.30;9.52;;;;;;;11.70;100.00;98095.59;5157256;27;20026;-75
2023/10/04 00:02:52;;;;;;;22.30;11.30;;;;;;;11.65;100.00;98085.13;5141094;27;20027;-76
2023/10/04 00:05:19;;;;;;;24.77;9.73;;;;;;;11.64;100.00;98078.03;5141542;27;20094;-75
2023/10/04 00:07:49;;;;;;;19.15;9.23;;;;;;;11.61;100.00;98091.59;5139921;27;20018;-75
2023/10/04 00:10:16;;;;;;;20.48;9.73;;;;;;;11.73;100.00;98093.63;5120504;27;20114;-75
2023/10/04 00:12:43;;;;;;;21.02;10.30;;;;;;;11.59;100.00;98076.56;5137819;27;20031;-74
2023/10/04 00:15:13;;;;;;;20.48;9.60;;;;;;;11.56;100.00;98082.97;5134197;27;20078;-75
2023/10/04 00:17:42;;;;;;;22.55;9.85;;;;;;;11.57;100.00;98086.50;5170548;27;20026;-75
2023/10/04 00:20:16;;;;;;;20.70;9.95;;;;;;;11.53;100.00;98082.28;5156972;27;20477;-75
2023/10/04 00:22:43;;;;;;;22.00;10.10;;;;;;;11.49;100.00;98083.41;5135001;27;20449;-75
2023/10/04 00:25:11;;;;;;;21.30;10.02;;;;;;;11.44;100.00;98081.84;5141277;27;20081;-75
2023/10/04 00:27:40;;;;;;;20.08;9.70;;;;;;;11.46;100.00;98087.13;5156731;27;20022;-75
2023/10/04 00:30:10;;;;;;;18.30;9.63;;;;;;;11.47;100.00;98079.97;5156791;27;20026;-75
2023/10/04 00:32:36;;;;;;;22.02;9.00;;;;;;;11.41;100.00;98083.84;5175107;27;20029;-75
2023/10/04 00:35:03;;;;;;;21.85;10.98;;;;;;;11.40;100.00;98077.63;5156863;27;20061;-76
2023/10/04 00:37:35;;;;;;;21.02;9.93;;;;;;;11.37;100.00;98063.53;5156688;27;20019;-76
2023/10/04 00:40:09;;;;;;;22.88;10.80;;;;;;;11.39;100.00;98083.06;5130259;27;20038;-76
2023/10/04 00:42:35;;;;;;;20.60;9.65;;;;;;;11.30;100.00;98063.03;5165440;27;20035;-75
2023/10/04 00:45:01;;;;;;;23.15;9.57;;;;;;;11.29;100.00;98074.66;5175132;27;20496;-75
2023/10/04 00:47:27;;;;;;;19.60;9.57;;;;;;;11.27;100.00;98073.03;5139196;27;20397;-75
2023/10/04 00:49:55;;;;;;;20.90;9.75;;;;;;;11.22;100.00;98067.97;5119912;27;20026;-75
2023/10/04 00:52:21;;;;;;;21.58;10.23;;;;;;;11.10;100.00;98076.69;5135200;27;20050;-75
2023/10/04 00:54:46;;;;;;;25.42;10.00;;;;;;;11.20;100.00;98085.91;5153796;27;20110;-75
2023/10/04 00:57:12;;;;;;;23.67;9.88;;;;;;;11.15;100.00;98068.38;5156736;27;20482;-75
2023/10/04 00:59:38;;;;;;;23.02;9.65;;;;;;;11.22;100.00;98078.66;5111250;27;20031;-75
2023/10/04 01:02:04;;;;;;;18.75;9.70;;;;;;;11.25;100.00;98078.50;5121556;27;20025;-75
2023/10/04 01:04:32;;;;;;;21.27;10.13;;;;;;;11.16;100.00;98070.97;5150355;27;20022;-75
2023/10/04 01:06:58;;;;;;;18.08;10.30;;;;;;;11.22;100.00;98084.03;5156145;27;20018;-75
2023/10/04 01:09:24;;;;;;;20.27;9.93;;;;;;;11.05;100.00;98080.53;5144641;27;20469;-76
2023/10/04 01:11:49;;;;;;;18.95;9.85;;;;;;;11.17;100.00;98086.06;5149660;27;20015;-74
2023/10/04 01:14:25;;;;;;;20.38;9.77;;;;;;;11.01;100.00;98077.19;5133047;27;20113;-74
2023/10/04 01:16:52;;;;;;;24.73;10.93;;;;;;;11.00;100.00;98072.78;5157001;27;20558;-76
2023/10/04 01:19:18;;;;;;;18.30;9.85;;;;;;;10.97;100.00;98080.97;5149593;27;20520;-74
2023/10/04 01:21:45;;;;;;;24.42;10.68;;;;;;;10.89;100.00;98075.16;5144285;27;20030;-75
2023/10/04 01:24:11;;;;;;;30.00;10.70;;;;;;;10.82;100.00;98077.31;5143745;27;20133;-74
2023/10/04 01:26:38;;;;;;;23.42;10.63;;;;;;;10.77;100.00;98078.50;5144931;27;20025;-75
2023/10/04 01:29:12;;;;;;;23.70;10.07;;;;;;;10.76;100.00;98084.81;5155791;27;20037;-76
2023/10/04 01:31:41;;;;;;;18.25;9.32;;;;;;;10.71;100.00;98087.72;5174260;27;20075;-75
2023/10/04 01:34:07;;;;;;;21.30;9.70;;;;;;;10.68;100.00;98070.97;5155345;27;20102;-75
2023/10/04 01:36:36;;;;;;;25.77;10.10;;;;;;;10.61;100.00;98074.94;5155508;27;20133;-75
2023/10/04 01:39:07;;;;;;;26.77;10.52;;;;;;;10.60;100.00;98073.22;5155753;27;20018;-75
2023/10/04 01:41:37;;;;;;;20.08;10.65;;;;;;;10.69;100.00;98078.94;5138639;27;20026;-75
2023/10/04 01:44:04;;;;;;;19.70;10.35;;;;;;;10.59;100.00;98072.34;5164423;27;20541;-75
2023/10/04 01:46:30;;;;;;;19.30;9.68;;;;;;;10.59;100.00;98079.50;5151790;27;20021;-74
2023/10/04 01:48:56;;;;;;;18.33;9.57;;;;;;;10.53;100.00;98078.03;5162367;27;20378;-75
2023/10/04 01:51:22;;;;;;;18.90;9.35;;;;;;;10.40;100.00;98076.94;5139614;27;20017;-74
2023/10/04 01:53:48;;;;;;;20.20;9.68;;;;;;;10.38;100.00;98072.63;5153053;27;20432;-75
2023/10/04 01:56:13;;;;;;;22.45;9.88;;;;;;;10.41;100.00;98077.81;5137199;27;20474;-75
2023/10/04 01:58:39;;;;;;;17.27;9.63;;;;;;;10.40;100.00;98066.22;5173740;27;20029;-76
2023/10/04 02:01:06;;;;;;;18.10;9.40;;;;;;;10.46;100.00;98070.41;5173301;27;20032;-75
2023/10/04 02:03:33;;;;;;;18.65;9.48;;;;;;;10.44;100.00;98072.28;5149776;27;20019;-77
2023/10/04 02:05:59;;;;;;;18.15;8.80;;;;;;;10.34;100.00;98071.91;5134213;27;20022;-75
2023/10/04 02:08:25;;;;;;;18.90;9.23;;;;;;;10.28;100.00;98077.56;5169487;27;20022;-76
2023/10/04 02:10:52;;;;;;;22.42;10.13;;;;;;;10.32;100.00;98080.03;5154949;27;20077;-76
2023/10/04 02:13:19;;;;;;;27.60;10.98;;;;;;;10.33;100.00;98078.22;5154465;27;20018;-77
2023/10/04 02:15:51;;;;;;;23.42;10.27;;;;;;;10.33;100.00;98088.91;5123127;27;20063;-77
2023/10/04 02:18:18;;;;;;;;;;;;;;;10.28;100.00;98089.13;5150833;27;20019;-77
2023/10/04 02:20:46;;;;;;;20.88;9.45;;;;;;;10.24;100.00;98084.06;5152051;27;19926;-77
2023/10/04 02:23:12;;;;;;;26.98;10.68;;;;;;;10.23;100.00;98090.34;5172971;27;20042;-77
2023/10/04 02:25:39;;;;;;;22.13;10.52;;;;;;;10.23;100.00;98093.88;5137524;27;20077;-77
2023/10/04 02:28:11;;;;;;;22.35;10.15;;;;;;;10.20;100.00;98088.69;5137108;27;20022;-77
2023/10/04 02:30:38;;;;;;;40.53;16.40;;;;;;;10.22;100.00;98088.59;5154697;27;20014;-78
2023/10/04 02:33:13;;;;;;;28.05;11.38;;;;;;;10.21;100.00;98087.72;5137012;27;20185;-77
2023/10/04 02:35:50;;;;;;;27.95;10.45;;;;;;;10.23;100.00;98084.97;5133265;27;20026;-77
2023/10/04 02:38:19;;;;;;;22.95;10.80;;;;;;;10.12;100.00;98088.16;5149025;27;20105;-77
2023/10/04 02:40:48;;;;;;;19.27;10.30;;;;;;;10.18;100.00;98087.88;5137024;27;20069;-76
2023/10/04 02:43:15;;;;;;;22.60;11.05;;;;;;;10.18;100.00;98085.22;5154412;27;20133;-77
2023/10/04 02:45:42;;;;;;;21.50;10.73;;;;;;;10.05;100.00;98089.44;5149050;27;20030;-76
2023/10/04 02:48:10;;;;;;;65.47;20.17;;;;;;;10.07;100.00;98094.69;5112803;27;20110;-76
2023/10/04 02:50:37;;;;;;;60.22;24.52;;;;;;;10.08;100.00;98083.94;5131307;27;20046;-75
2023/10/04 02:53:03;;;;;;;56.97;20.85;;;;;;;10.04;100.00;98082.34;5131382;27;20131;-77
2023/10/04 02:55:31;;;;;;;34.13;16.55;;;;;;;10.01;100.00;98084.31;5131190;27;20056;-75
2023/10/04 02:57:59;;;;;;;36.15;17.13;;;;;;;10.11;100.00;98085.59;5148716;27;20031;-75
2023/10/04 03:00:28;;;;;;;31.90;14.43;;;;;;;10.15;100.00;98085.38;5141894;27;20019;-76
2023/10/04 03:02:53;;;;;;;26.95;12.77;;;;;;;10.13;100.00;98089.03;5133455;27;20022;-77
2023/10/04 03:05:20;;;;;;;27.27;11.93;;;;;;;10.09;100.00;98082.13;5133314;27;20026;-78
2023/10/04 03:07:47;;;;;;;23.80;11.23;;;;;;;9.96;100.00;98076.56;5133319;27;20037;-78
2023/10/04 03:10:14;;;;;;;29.25;11.55;;;;;;;9.93;100.00;98087.41;5133511;27;20080;-78
2023/10/04 03:12:45;;;;;;;28.52;12.65;;;;;;;10.00;100.00;98090.59;5133706;27;20054;-76
2023/10/04 03:15:10;;;;;;;24.77;12.70;;;;;;;10.00;100.00;98083.44;5134132;27;20482;-78
2023/10/04 03:17:36;;;;;;;30.45;13.77;;;;;;;10.04;100.00;98089.50;5133182;27;20018;-76
2023/10/04 03:20:04;;;;;;;29.25;12.85;;;;;;;9.95;100.00;98081.97;5133426;27;20060;-76
2023/10/04 03:22:30;;;;;;;27.20;13.30;;;;;;;9.97;100.00;98088.06;5151597;27;20067;-76
2023/10/04 03:24:55;;;;;;;38.28;14.18;;;;;;;10.07;100.00;98090.22;5151902;27;20458;-76
2023/10/04 03:27:24;;;;;;;22.15;12.15;;;;;;;10.01;100.00;98090.53;5136108;27;20393;-74
2023/10/04 03:29:52;;;;;;;33.50;14.45;;;;;;;10.05;100.00;98092.13;5154310;27;20038;-75
2023/10/04 03:32:18;;;;;;;40.80;13.40;;;;;;;9.98;100.00;98090.69;5168448;27;20022;-79
2023/10/04 03:34:44;;;;;;;29.05;13.73;;;;;;;10.00;100.00;98090.59;5151994;27;20053;-75
2023/10/04 03:37:20;;;;;;;30.83;15.35;;;;;;;10.05;100.00;98096.59;5153509;27;20065;-74
2023/10/04 03:39:46;;;;;;;31.77;13.40;;;;;;;9.92;100.00;98093.66;5155281;27;20536;-75
2023/10/04 03:42:14;;;;;;;31.67;13.80;;;;;;;10.02;100.00;98096.75;5175371;27;20065;-75
2023/10/04 03:44:40;;;;;;;42.85;15.63;;;;;;;9.94;100.00;98099.78;5158061;27;20033;-75
2023/10/04 03:47:06;;;;;;;31.02;13.57;;;;;;;9.84;100.00;98101.22;5157678;27;20018;-75
2023/10/04 03:49:32;;;;;;;34.05;13.70;;;;;;;9.89;100.00;98099.16;5157216;27;20030;-75
2023/10/04 03:51:58;;;;;;;42.92;14.25;;;;;;;9.88;100.00;98110.78;5176013;27;20026;-75
2023/10/04 03:54:26;;;;;;;29.55;12.95;;;;;;;9.88;100.00;98105.44;5176012;27;20036;-74
2023/10/04 03:56:53;;;;;;;25.55;11.65;;;;;;;9.79;100.00;98095.22;5157953;27;20065;-74
2023/10/04 03:59:18;;;;;;;33.63;12.05;;;;;;;9.75;100.00;98094.50;5176062;27;20053;-74
2023/10/04 04:01:44;;;;;;;33.60;14.52;;;;;;;9.78;100.00;98098.84;5156958;27;20034;-76
2023/10/04 04:04:14;;;;;;;31.75;12.55;;;;;;;9.69;100.00;98089.47;5153023;27;20031;-75
2023/10/04 04:06:40;;;;;;;30.08;11.73;;;;;;;9.71;100.00;98097.44;5154978;27;20022;-75
2023/10/04 04:09:08;;;;;;;28.10;13.48;;;;;;;9.70;100.00;98101.03;5136522;27;20022;-75
2023/10/04 04:11:35;;;;;;;28.45;12.77;;;;;;;9.71;100.00;98097.44;5154777;27;20363;-78
2023/10/04 04:14:01;;;;;;;36.83;12.52;;;;;;;9.67;100.00;98094.03;5147870;27;20545;-75
2023/10/04 04:16:26;;;;;;;38.35;16.00;;;;;;;9.69;100.00;98099.31;5175482;27;20019;-76
2023/10/04 04:18:54;;;;;;;38.40;17.45;;;;;;;9.60;100.00;98089.06;5175374;27;20036;-76
2023/10/04 04:21:20;;;;;;;38.25;14.77;;;;;;;9.58;100.00;98096.28;5153592;27;20019;-75
2023/10/04 04:23:46;;;;;;;54.65;14.23;;;;;;;9.58;100.00;98096.28;5153501;27;20121;-78
2023/10/04 04:26:12;;;;;;;35.35;13.23;;;;;;;9.51;100.00;98097.53;5148965;27;20037;-76
2023/10/04 04:28:38;;;;;;;26.60;12.05;;;;;;;9.55;100.00;98093.78;5133272;27;20031;-75
2023/10/04 04:31:19;;;;;;;30.40;11.32;;;;;;;9.55;100.00;98101.78;5133006;27;20581;-76
2023/10/04 04:33:45;;;;;;;34.70;12.18;;;;;;;9.48;100.00;98087.88;5126917;27;20034;-75
2023/10/04 04:36:19;;;;;;;29.20;11.55;;;;;;;9.49;100.00;98096.75;5153861;27;20030;-75
2023/10/04 04:38:47;;;;;;;39.85;13.48;;;;;;;9.51;100.00;98086.84;5125992;27;20529;-74
2023/10/04 04:41:15;;;;;;;30.52;12.20;;;;;;;9.54;100.00;98092.91;5133027;27;20034;-74
2023/10/04 04:43:43;;;;;;;29.90;13.10;;;;;;;9.59;100.00;98082.88;5137273;27;20042;-74
2023/10/04 04:46:32;;;;;;;41.35;14.43;;;;;;;9.67;100.00;98090.50;5120654;27;20023;-74
2023/10/04 04:49:00;;;;;;;34.90;14.55;;;;;;;9.70;100.00;98083.19;5162120;27;20106;-75
2023/10/04 04:51:28;;;;;;;30.17;14.70;;;;;;;9.79;100.00;98089.88;5157011;27;20127;-76
2023/10/04 04:53:54;;;;;;;32.47;14.32;;;;;;;9.76;100.00;98095.38;5143103;27;20365;-74
2023/10/04 04:56:21;;;;;;;45.08;13.55;;;;;;;9.87;100.00;98095.72;5162037;27;20022;-74
2023/10/04 04:58:47;;;;;;;33.13;12.00;;;;;;;9.82;100.00;98089.72;5138642;27;20026;-74
2023/10/04 05:01:14;;;;;;;31.20;12.55;;;;;;;9.78;100.00;98097.03;5141201;27;20101;-75
2023/10/04 05:04:19;;;;;;;44.35;13.90;;;;;;;10.03;100.00;98075.28;5154236;27;20413;-76
2023/10/04 05:06:45;;;;;;;44.30;11.95;;;;;;;10.94;100.00;98073.13;5124751;27;20035;-75
2023/10/04 05:09:13;;;;;;;37.03;13.13;;;;;;;11.73;100.00;98079.34;5164545;27;20039;-76
2023/10/04 05:11:39;;;;;;;31.33;11.88;;;;;;;12.78;100.00;98074.72;5143821;27;20446;-75
2023/10/04 05:14:09;;;;;;;38.65;12.20;;;;;;;13.65;100.00;98082.59;5139654;27;20031;-76
2023/10/04 05:16:34;;;;;;;52.22;13.25;;;;;;;14.27;100.00;98052.34;5115215;27;20058;-75
2023/10/04 05:19:00;;;;;;;33.90;11.30;;;;;;;14.77;100.00;98056.03;5150134;27;20073;-75
2023/10/04 05:21:25;;;;;;;32.97;13.38;;;;;;;15.17;100.00;98058.47;5157221;27;20093;-75
2023/10/04 05:23:55;;;;;;;34.50;12.48;;;;;;;15.43;100.00;98064.69;5159661;27;20197;-75
2023/10/04 05:26:21;;;;;;;38.55;14.25;;;;;;;16.02;100.00;98054.00;5125105;27;20034;-75
2023/10/04 05:28:47;;;;;;;49.05;16.15;;;;;;;16.25;100.00;98053.09;5149133;27;20504;-75
2023/10/04 05:31:17;;;;;;;43.10;14.18;;;;;;;16.43;100.00;98059.78;5126902;27;20042;-75
2023/10/04 05:33:43;;;;;;;40.92;14.75;;;;;;;16.94;100.00;98054.03;5139150;27;20038;-75
2023/10/04 05:36:12;;;;;;;36.63;12.85;;;;;;;17.91;100.00;98056.88;5136676;27;20031;-76
2023/10/04 05:38:37;;;;;;;42.80;12.10;;;;;;;18.46;96.38;98053.91;5143867;27;20015;-75
2023/10/04 05:41:03;;;;;;;34.10;11.40;;;;;;;18.63;93.19;98058.81;5153152;27;20057;-75
2023/10/04 05:43:29;;;;;;;37.25;12.88;;;;;;;18.47;95.22;98061.06;5147047;27;20033;-75
2023/10/04 05:45:55;;;;;;;26.48;12.70;;;;;;;18.98;89.45;98052.16;5116730;27;20035;-75
2023/10/04 05:48:24;;;;;;;31.55;13.52;;;;;;;18.69;91.59;98066.41;5144387;27;20335;-75
2023/10/04 05:50:54;;;;;;;50.67;14.02;;;;;;;18.95;92.35;98061.41;5130150;27;20018;-75
2023/10/04 05:53:21;;;;;;;41.28;13.50;;;;;;;19.60;85.34;98058.28;5143092;27;20022;-76
2023/10/04 05:55:48;;;;;;;31.55;12.27;;;;;;;20.07;80.78;98044.94;5140112;27;20113;-76
2023/10/04 05:58:15;;;;;;;40.20;12.25;;;;;;;19.67;83.87;98054.03;5137805;27;20026;-76
2023/10/04 06:00:41;;;;;;;29.95;11.45;;;;;;;20.55;79.16;98045.81;5132505;27;20494;-75
2023/10/04 06:03:08;;;;;;;36.60;12.20;;;;;;;20.87;73.99;98046.34;5122419;27;20029;-75
2023/10/04 06:05:35;;;;;;;43.85;14.40;;;;;;;21.02;71.71;98050.31;5139281;27;20025;-74
2023/10/04 06:08:06;;;;;;;61.05;19.10;;;;;;;21.10;72.48;98046.91;5146139;27;20030;-76
2023/10/04 06:10:32;;;;;;;53.58;16.40;;;;;;;21.96;67.03;98038.34;5145402;27;20034;-76
2023/10/04 06:12:58;;;;;;;43.40;14.90;;;;;;;22.35;64.04;98036.16;5173451;27;20021;-76
2023/10/04 06:15:26;;;;;;;41.30;14.25;;;;;;;22.14;63.82;98039.22;5135006;27;20022;-76
2023/10/04 06:17:52;;;;;;;57.40;19.38;;;;;;;21.73;66.56;98045.16;5148979;27;20461;-75
2023/10/04 06:22:57;;;;;;;50.67;14.18;;;;;;;22.22;63.95;98059.34;5146190;27;20050;-75
2023/10/04 06:25:23;;;;;;;;;;;;;;;22.82;61.65;98053.13;5127209;27;20535;-75
2023/10/04 06:27:50;;;;;;;24.08;10.70;;;;;;;23.22;59.12;98058.84;5133959;27;19963;-75
2023/10/04 06:30:21;;;;;;;29.02;12.25;;;;;;;23.42;59.04;98047.72;5104674;27;20421;-75
2023/10/04 06:32:50;;;;;;;35.75;12.43;;;;;;;23.79;57.13;98052.84;5126499;27;20553;-75
2023/10/04 06:35:24;;;;;;;30.70;10.90;;;;;;;23.88;56.44;98044.50;5130899;27;20041;-75
2023/10/04 06:37:51;;;;;;;32.88;11.68;;;;;;;24.68;54.89;98048.44;5134385;27;20138;-75
2023/10/04 06:40:19;;;;;;;28.70;12.43;;;;;;;24.75;53.57;98044.84;5143357;27;20026;-75
2023/10/04 06:42:46;;;;;;;42.92;13.65;;;;;;;25.28;52.07;98049.78;5143740;27;20034;-76
2023/10/04 06:45:22;;;;;;;27.33;11.45;;;;;;;25.89;50.36;98045.47;5126596;27;20025;-75
2023/10/04 06:47:49;;;;;;;39.92;11.95;;;;;;;26.55;48.55;98041.34;5112715;27;20170;-75
2023/10/04 06:50:18;;;;;;;50.40;12.82;;;;;;;26.56;47.39;98043.03;5117056;27;20042;-75
2023/10/04 06:52:51;;;;;;;88.40;14.77;;;;;;;26.52;47.62;98044.44;5125342;27;20494;-75
2023/10/04 06:55:19;;;;;;;43.25;11.68;;;;;;;26.95;46.30;98049.25;5116175;27;20470;-75
2023/10/04 06:57:48;;;;;;;39.30;12.95;;;;;;;27.06;46.38;98042.47;5111068;28;20901;-74
2023/10/04 07:00:22;;;;;;;29.80;12.65;;;;;;;26.88;45.94;98029.94;5114498;27;20038;-74
2023/10/04 07:02:55;;;;;;;29.05;11.82;;;;;;;26.75;45.56;98037.91;5116247;28;20106;-74
2023/10/04 07:05:35;;;;;;;35.30;10.48;;;;;;;27.22;45.20;98039.56;5112810;27;20029;-75
2023/10/04 07:08:01;;;;;;;29.20;11.00;;;;;;;27.25;45.08;98034.53;5105935;28;20051;-75
2023/10/04 07:10:28;;;;;;;30.58;11.70;;;;;;;27.82;44.32;98032.00;5097065;28;20034;-75
2023/10/04 07:12:56;;;;;;;32.08;10.07;;;;;;;27.86;42.71;98036.09;5122873;28;20076;-75
2023/10/04 07:15:24;;;;;;;24.45;10.23;;;;;;;27.31;43.58;98028.28;5140939;27;20019;-76
2023/10/04 07:17:50;;;;;;;24.90;10.25;;;;;;;27.76;42.86;98032.75;5129175;27;20083;-76
2023/10/04 07:20:18;;;;;;;36.63;13.43;;;;;;;28.86;41.51;98027.91;5137017;27;20451;-75
2023/10/04 07:22:50;;;;;;;34.88;11.88;;;;;;;28.82;41.26;98029.38;5123534;27;20522;-75
2023/10/04 07:25:17;;;;;;;50.70;14.15;;;;;;;28.35;42.58;98032.66;5125476;27;20027;-75
2023/10/04 07:27:44;;;;;;;37.88;12.77;;;;;;;28.45;42.57;98020.31;5128725;27;20071;-75
2023/10/04 07:30:14;;;;;;;44.75;12.23;;;;;;;28.96;41.81;98014.66;5124099;27;20015;-75
2023/10/04 07:32:43;;;;;;;35.47;12.05;;;;;;;29.83;40.06;98006.81;5118240;27;20022;-76
2023/10/04 07:35:12;;;;;;;43.30;12.43;;;;;;;29.80;39.73;98007.19;5149953;27;20058;-75
2023/10/04 07:37:39;;;;;;;36.55;12.57;;;;;;;29.65;40.25;98025.78;5122296;27;20034;-75
2023/10/04 07:40:09;;;;;;;46.83;13.25;;;;;;;29.75;39.70;98015.22;5147059;27;20030;-75
2023/10/04 07:42:38;;;;;;;39.03;12.70;;;;;;;29.79;39.94;98019.25;5128628;27;20058;-78
2023/10/04 07:45:05;;;;;;;37.33;12.15;;;;;;;30.12;39.12;98017.53;5137117;27;20061;-78
2023/10/04 07:47:31;;;;;;;34.20;11.02;;;;;;;28.93;40.11;98017.81;5118125;27;20378;-78
2023/10/04 07:49:56;;;;;;;25.77;9.75;;;;;;;28.92;40.14;98014.19;5099122;27;20027;-77
2023/10/04 07:52:22;;;;;;;37.08;10.32;;;;;;;28.70;40.53;98015.25;5115874;27;20508;-78
2023/10/04 07:54:48;;;;;;;24.67;10.40;;;;;;;28.97;39.76;98010.84;5136744;27;20023;-78
2023/10/04 07:57:13;;;;;;;32.25;10.15;;;;;;;29.37;39.18;98012.03;5120852;27;20019;-79
2023/10/04 07:59:41;;;;;;;41.05;12.80;;;;;;;29.33;39.23;98000.53;5134390;27;20445;-79
2023/10/04 08:02:06;;;;;;;41.88;11.10;;;;;;;29.78;38.64;98004.63;5122020;27;20030;-78
2023/10/04 08:04:33;;;;;;;35.00;12.60;;;;;;;30.29;37.83;98006.97;5136418;27;20026;-78
2023/10/04 08:06:59;;;;;;;25.92;10.60;;;;;;;29.43;37.90;97998.28;5135672;27;20026;-76
2023/10/04 08:09:24;;;;;;;33.90;9.23;;;;;;;29.38;38.34;97998.03;5115813;27;20033;-77
2023/10/04 08:11:52;;;;;;;30.10;10.63;;;;;;;30.01;37.87;97987.78;5115746;27;20550;-78
2023/10/04 08:14:20;;;;;;;19.67;8.13;;;;;;;30.97;36.62;97994.81;5133868;27;20031;-78
2023/10/04 08:16:50;;;;;;;22.48;7.95;;;;;;;31.25;35.46;97991.81;5118974;27;20022;-78
2023/10/04 08:19:16;;;;;;;22.42;8.07;;;;;;;31.52;35.04;97986.03;5118880;27;20045;-78
2023/10/04 08:21:41;;;;;;;21.45;8.30;;;;;;;32.32;34.69;97983.81;5135931;27;20406;-78
2023/10/04 08:24:09;;;;;;;22.25;8.20;;;;;;;32.33;33.85;97977.22;5136188;27;20043;-78
2023/10/04 08:26:37;;;;;;;18.30;7.60;;;;;;;32.26;33.83;97973.63;5154406;27;20037;-77
2023/10/04 08:29:05;;;;;;;21.13;7.25;;;;;;;32.22;34.20;97982.38;5131503;27;20038;-78
2023/10/04 08:31:32;;;;;;;19.90;7.13;;;;;;;32.30;34.08;97977.66;5144044;27;20451;-78
2023/10/04 08:34:01;;;;;;;17.63;7.68;;;;;;;32.86;34.31;97973.00;5104324;27;20105;-79
2023/10/04 08:36:26;;;;;;;34.60;9.15;;;;;;;33.79;33.14;97971.91;5134647;27;20023;-79
2023/10/04 08:38:52;;;;;;;25.48;7.30;;;;;;;34.11;31.83;97974.56;5116594;27;20034;-80
2023/10/04 08:41:18;;;;;;;12.25;7.20;;;;;;;34.02;31.63;97971.22;5141036;27;20123;-78
2023/10/04 08:43:47;;;;;;;25.70;7.72;;;;;;;34.32;32.08;97971.25;5119507;27;20140;-79
2023/10/04 08:46:16;;;;;;;15.27;6.35;;;;;;;34.51;30.88;97964.56;5124225;27;20560;-79
2023/10/04 08:48:43;;;;;;;16.88;6.75;;;;;;;33.61;31.49;97963.59;5100083;27;20070;-79
2023/10/04 08:51:28;;;;;;;12.48;6.07;;;;;;;34.23;30.96;97964.34;5117731;27;20098;-78
2023/10/04 08:54:12;;;;;;;16.83;6.45;;;;;;;34.75;30.34;97960.81;5139231;27;20390;-78
2023/10/04 08:57:00;;;;;;;17.00;6.47;;;;;;;35.39;29.85;97967.41;5120355;27;20042;-78
2023/10/04 08:59:26;;;;;;;18.13;6.75;;;;;;;35.28;29.49;97965.50;5117282;27;20026;-78
2023/10/04 09:01:54;;;;;;;22.15;7.65;;;;;;;35.56;29.62;97964.75;5117588;27;20023;-78
2023/10/04 09:04:24;;;;;;;19.95;6.38;;;;;;;36.17;28.65;97956.66;5108044;27;20074;-79
2023/10/04 09:06:51;;;;;;;20.92;6.43;;;;;;;36.93;27.78;97958.97;5110311;27;20027;-79
2023/10/04 09:09:18;;;;;;;38.70;9.32;;;;;;;36.60;28.11;97958.94;5108089;27;20459;-79
2023/10/04 09:11:47;;;;;;;13.00;6.70;;;;;;;36.73;27.66;97946.63;5111729;27;20030;-79
2023/10/04 09:14:14;;;;;;;13.82;6.80;;;;;;;36.68;27.96;97944.56;5125151;27;20106;-79
2023/10/04 09:16:40;;;;;;;13.60;7.15;;;;;;;37.00;27.95;97958.84;5131673;27;20059;-81
2023/10/04 09:19:17;;;;;;;14.05;6.57;;;;;;;37.02;27.60;97939.88;5129359;27;20031;-81
2023/10/04 09:21:43;;;;;;;16.67;7.47;;;;;;;37.23;27.22;97943.84;5117780;27;20494;-81
2023/10/04 09:24:12;;;;;;;18.90;6.70;;;;;;;37.64;26.53;97943.38;5117816;27;20042;-84
2023/10/04 09:26:52;;;;;;;11.57;6.28;;;;;;;37.99;26.25;97941.06;5126461;27;20034;-84
2023/10/04 09:29:32;;;;;;;16.02;6.25;;;;;;;38.48;25.28;97928.00;5101882;27;20402;-83
2023/10/04 09:31:58;;;;;;;13.73;6.60;;;;;;;38.19;25.77;97932.09;5108335;27;20035;-84
2023/10/04 09:34:24;;;;;;;11.52;6.13;;;;;;;37.72;25.22;97934.53;5103584;27;20031;-81
2023/10/04 09:36:54;;;;;;;14.40;6.65;;;;;;;37.85;24.91;97933.31;5098124;27;20103;-84
2023/10/04 09:39:32;;;;;;;15.40;6.07;;;;;;;37.07;25.21;97933.53;5129501;27;20078;-84
2023/10/04 09:41:59;;;;;;;11.70;5.57;;;;;;;37.43;24.88;97930.19;5110556;27;20034;-83
2023/10/04 09:44:27;;;;;;;11.55;6.15;;;;;;;37.09;25.40;97931.34;5107961;27;20053;-83
2023/10/04 09:47:00;;;;;;;18.13;6.30;;;;;;;37.82;24.96;97928.25;5099933;27;20069;-84
2023/10/04 09:49:28;;;;;;;13.00;6.15;;;;;;;38.14;24.89;97940.44;5097729;27;20027;-85
2023/10/04 09:51:55;;;;;;;14.13;6.53;;;;;;;38.69;24.24;97930.97;5119629;27;20482;-84
2023/10/04 09:54:22;;;;;;;13.55;6.25;;;;;;;38.47;24.22;97925.44;5114024;27;20482;-84
2023/10/04 09:56:50;;;;;;;9.40;5.35;;;;;;;37.60;23.89;97925.44;5124928;27;20102;-84
2023/10/04 09:59:20;;;;;;;13.60;5.35;;;;;;;37.47;23.83;97919.41;5117615;27;20035;-83
2023/10/04 10:01:56;;;;;;;12.70;6.60;;;;;;;38.08;23.88;97915.47;5116810;27;20019;-84
2023/10/04 10:04:27;;;;;;;12.77;6.40;;;;;;;38.22;23.89;97906.41;5102845;27;20057;-85
2023/10/04 10:07:15;;;;;;;12.00;5.57;;;;;;;38.65;23.29;97919.47;5105358;27;20393;-85
2023/10/04 10:10:16;;;;;;;16.75;5.63;;;;;;;39.13;23.29;97912.06;5098181;27;20037;-85
2023/10/04 10:12:48;;;;;;;17.63;6.53;;;;;;;38.90;23.08;97900.13;5095974;27;20035;-83
2023/10/04 10:15:14;;;;;;;14.20;7.57;;;;;;;39.35;23.05;97904.41;5112655;27;20026;-84
2023/10/04 10:17:42;;;;;;;14.93;6.38;;;;;;;39.96;22.40;97895.22;5114418;27;20042;-83
2023/10/04 10:20:12;;;;;;;11.10;6.07;;;;;;;40.87;21.22;97895.47;5134648;27;20474;-84
2023/10/04 10:22:59;;;;;;;12.35;5.50;;;;;;;41.34;21.13;97895.19;5133574;27;20057;-83
2023/10/04 10:25:29;;;;;;;13.20;6.30;;;;;;;41.08;21.21;97885.94;5126930;27;20083;-84
2023/10/04 10:27:59;;;;;;;18.97;6.20;;;;;;;39.77;22.29;97874.41;5097530;27;20110;-84
2023/10/04 10:30:25;;;;;;;11.70;6.10;;;;;;;38.94;22.77;97880.84;5111860;27;20030;-83
2023/10/04 10:32:57;;;;;;;19.33;7.10;;;;;;;39.31;22.61;97872.47;5106899;27;20045;-84
2023/10/04 10:35:58;;;;;;;12.98;5.38;;;;;;;40.30;22.00;97867.59;5135124;27;20439;-83
2023/10/04 10:38:30;;;;;;;10.93;5.63;;;;;;;39.33;22.62;97876.69;5109846;27;20110;-83
2023/10/04 10:40:55;;;;;;;10.55;5.72;;;;;;;39.47;22.13;97871.44;5131302;27;20363;-83
2023/10/04 10:43:21;;;;;;;11.32;5.38;;;;;;;39.23;22.54;97857.00;5098049;27;20146;-83
2023/10/04 10:45:47;;;;;;;12.95;5.68;;;;;;;39.57;22.02;97851.88;5105625;27;20050;-84
2023/10/04 10:48:13;;;;;;;11.68;5.65;;;;;;;39.53;22.46;97856.34;5111884;27;20497;-84
2023/10/04 10:50:41;;;;;;;17.67;5.40;;;;;;;38.55;22.66;97854.19;5095217;28;20084;-84
2023/10/04 10:53:13;;;;;;;29.08;6.05;;;;;;;37.24;23.94;97847.81;5114039;27;20091;-83
2023/10/04 10:55:45;;;;;;;17.77;5.82;;;;;;;36.00;25.11;97838.69;5124137;27;20455;-84
2023/10/04 10:58:13;;;;;;;11.27;5.78;;;;;;;36.64;24.00;97837.38;5112697;27;20027;-84
2023/10/04 11:00:39;;;;;;;13.60;6.25;;;;;;;37.87;23.92;97828.56;5094175;28;20518;-85
2023/10/04 11:03:09;;;;;;;13.82;5.55;;;;;;;38.22;23.16;97841.25;5095940;27;20058;-84
2023/10/04 11:05:35;;;;;;;13.07;6.30;;;;;;;38.88;22.32;97842.75;5096432;28;20027;-85
2023/10/04 11:08:02;;;;;;;14.63;6.60;;;;;;;39.50;22.54;97835.31;5096635;27;20505;-84
2023/10/04 11:10:27;;;;;;;9.82;5.68;;;;;;;38.49;22.88;97836.50;5116649;27;20037;-83
2023/10/04 11:13:04;;;;;;;14.60;5.35;;;;;;;38.35;23.32;97830.53;5124018;27;20031;-85
2023/10/04 11:15:41;;;;;;;10.35;5.45;;;;;;;38.55;22.87;97837.41;5103857;27;20125;-82
2023/10/04 11:18:07;;;;;;;11.18;5.65;;;;;;;38.34;22.64;97830.75;5097389;27;20023;-83
2023/10/04 11:20:36;;;;;;;12.68;5.30;;;;;;;38.37;22.75;97830.25;5101213;27;20031;-83
2023/10/04 11:23:04;;;;;;;12.02;5.10;;;;;;;38.86;22.98;97825.38;5130918;27;20495;-87
2023/10/04 11:25:29;;;;;;;12.15;5.85;;;;;;;39.31;22.95;97822.91;5113650;28;20478;-86
2023/10/04 11:27:56;;;;;;;14.27;5.63;;;;;;;39.61;22.11;97833.41;5120402;27;20035;-86